Time;durP1;ratioP1;P1;durP2;ratioP2;P2;SDS_P1;SDS_P2;PMS_P1;PMS_P2;Temp;Humidity;BMP_temperature;BMP_pressure;BME280_temperature;BME280_humidity;BME280_pressure;Samples;Min_cycle;Max_cycle;Signal;HPM_P1;HPM_P2
2021/11/09 00:00:18;;;;;;;0.10;0.10;;;;;;;3.55;86.38;102631.78;5057573;28;20020;-69
2021/11/09 00:02:44;;;;;;;0.10;0.10;;;;;;;3.53;86.31;102629.03;5057596;28;20040;-68
2021/11/09 00:05:14;;;;;;;0.10;0.10;;;;;;;3.52;86.14;102629.81;5039949;28;20403;-69
2021/11/09 00:07:47;;;;;;;0.10;0.10;;;;;;;3.52;86.79;102629.81;5058291;28;20036;-68
2021/11/09 00:10:14;;;;;;;0.10;0.10;;;;;;;3.54;86.39;102632.50;5057498;28;20043;-69
2021/11/09 00:12:42;;;;;;;0.10;0.10;;;;;;;3.55;86.44;102634.34;5040602;28;20025;-68
2021/11/09 00:15:10;;;;;;;0.00;0.00;;;;;;;3.54;86.75;102633.44;5057354;28;20029;-69
2021/11/09 00:17:36;;;;;;;0.20;0.20;;;;;;;3.55;86.61;102630.06;5057393;28;20033;-68
2021/11/09 00:20:05;;;;;;;0.10;0.10;;;;;;;3.56;86.61;102624.09;5057503;28;20028;-68
2021/11/09 00:22:31;;;;;;;0.10;0.10;;;;;;;3.55;86.70;102624.88;5040187;28;20025;-68
2021/11/09 00:24:56;;;;;;;0.10;0.10;;;;;;;3.56;86.65;102625.81;5057631;28;20218;-69
2021/11/09 00:27:22;;;;;;;0.10;0.10;;;;;;;3.56;86.75;102631.00;5057081;28;20100;-68
2021/11/09 00:29:48;;;;;;;0.10;0.10;;;;;;;3.55;86.66;102624.88;5056903;28;20112;-68
2021/11/09 00:32:15;;;;;;;0.10;0.10;;;;;;;3.54;86.52;102627.34;5056874;28;20020;-67
2021/11/09 00:34:41;;;;;;;0.10;0.10;;;;;;;3.54;86.37;102624.75;5057689;28;20024;-69
2021/11/09 00:37:06;;;;;;;0.10;0.10;;;;;;;3.54;86.44;102625.66;5057332;28;20104;-67
2021/11/09 00:39:33;;;;;;;0.10;0.10;;;;;;;3.54;86.61;102628.25;5057431;28;20392;-68
2021/11/09 00:41:59;;;;;;;0.13;0.13;;;;;;;3.53;86.47;102629.03;5038976;28;20037;-68
2021/11/09 00:44:25;;;;;;;0.10;0.10;;;;;;;3.52;87.28;102626.31;5057572;28;20025;-68
2021/11/09 00:46:52;;;;;;;0.10;0.10;;;;;;;3.52;86.23;102618.53;5057165;28;20399;-68
2021/11/09 00:49:20;;;;;;;0.20;0.20;;;;;;;3.52;86.62;102622.03;5039646;28;20032;-69
2021/11/09 00:51:46;;;;;;;0.10;0.10;;;;;;;3.52;86.57;102621.13;5057640;28;20025;-68
2021/11/09 00:54:12;;;;;;;0.20;0.20;;;;;;;3.51;86.41;102620.22;5056577;28;20032;-68
2021/11/09 00:56:38;;;;;;;0.10;0.10;;;;;;;3.50;86.41;102615.84;5039926;28;20054;-68
2021/11/09 00:59:05;;;;;;;0.10;0.10;;;;;;;3.50;86.55;102617.50;5039267;28;20306;-68
2021/11/09 01:01:31;;;;;;;0.10;0.10;;;;;;;3.50;86.59;102620.09;5057099;28;20387;-69
2021/11/09 01:03:56;;;;;;;0.10;0.10;;;;;;;3.49;86.43;102620.88;5056890;28;20029;-69
2021/11/09 01:06:22;;;;;;;0.20;0.20;;;;;;;3.49;86.68;102620.88;5056771;28;20033;-67
2021/11/09 01:08:48;;;;;;;0.10;0.10;;;;;;;3.48;86.55;102619.06;5056775;28;20024;-68
2021/11/09 01:11:14;;;;;;;0.10;0.10;;;;;;;3.48;86.63;102621.66;5056624;28;20068;-69
2021/11/09 01:13:39;;;;;;;0.10;0.10;;;;;;;3.48;86.64;102622.53;5039506;28;20470;-68
2021/11/09 01:16:05;;;;;;;0.00;0.00;;;;;;;3.48;86.76;102625.13;5039467;28;20082;-68
2021/11/09 01:18:56;;;;;;;0.10;0.10;;;;;;;3.48;86.72;102613.88;5056359;28;20028;-68
2021/11/09 01:21:22;;;;;;;0.10;0.10;;;;;;;3.44;86.67;102616.19;5055955;28;20037;-68
2021/11/09 01:23:51;;;;;;;0.10;0.10;;;;;;;3.44;86.56;102620.47;5054406;28;20433;-68
2021/11/09 01:26:17;;;;;;;0.10;0.10;;;;;;;3.44;86.49;102620.47;5053292;28;20033;-67
2021/11/09 01:28:45;;;;;;;0.00;0.00;;;;;;;3.43;86.61;102613.50;5054330;28;20025;-68
2021/11/09 01:31:11;;;;;;;0.10;0.10;;;;;;;3.43;86.66;102610.91;5051486;28;20124;-68
2021/11/09 01:33:37;;;;;;;0.03;0.03;;;;;;;3.42;86.78;102615.16;5056042;28;20017;-68
2021/11/09 01:36:04;;;;;;;0.10;0.10;;;;;;;3.42;86.74;102616.81;5056328;28;20009;-68
2021/11/09 01:38:30;;;;;;;0.10;0.10;;;;;;;3.42;86.43;102619.41;5038847;28;20032;-70
2021/11/09 01:40:56;;;;;;;0.10;0.10;;;;;;;3.41;86.81;102618.53;5060325;28;20056;-68
2021/11/09 01:43:23;;;;;;;0.00;0.00;;;;;;;3.39;86.66;102609.72;5042848;28;20037;-67
2021/11/09 01:45:48;;;;;;;0.10;0.10;;;;;;;3.39;86.70;102612.31;5060930;28;20051;-67
2021/11/09 01:48:15;;;;;;;0.20;0.20;;;;;;;3.38;86.67;102623.47;5042477;28;20378;-69
2021/11/09 01:50:44;;;;;;;0.20;0.20;;;;;;;3.38;86.78;102615.69;5043212;28;20052;-67
2021/11/09 01:53:10;;;;;;;0.00;0.00;;;;;;;3.37;86.65;102615.53;5059937;28;20059;-67
2021/11/09 01:55:37;;;;;;;0.10;0.10;;;;;;;3.37;86.37;102615.53;5060297;28;20029;-67
2021/11/09 01:58:05;;;;;;;0.10;0.10;;;;;;;3.36;86.72;102606.84;5060182;28;20036;-68
2021/11/09 02:00:35;;;;;;;0.20;0.20;;;;;;;3.34;86.65;102613.59;5043082;28;20037;-68
2021/11/09 02:03:00;;;;;;;0.00;0.00;;;;;;;3.34;86.77;102603.22;5059998;28;20070;-68
2021/11/09 02:05:28;;;;;;;0.10;0.10;;;;;;;3.34;86.94;102598.06;5042472;28;20048;-67
2021/11/09 02:07:55;;;;;;;0.20;0.20;;;;;;;3.32;86.71;102597.03;5059719;28;20036;-67
2021/11/09 02:10:33;;;;;;;0.17;0.17;;;;;;;3.31;86.66;102595.22;5042705;28;20025;-67
2021/11/09 02:12:59;;;;;;;0.07;0.07;;;;;;;3.32;86.82;102590.91;5042553;28;20071;-68
2021/11/09 02:15:26;;;;;;;0.10;0.10;;;;;;;3.32;86.84;102585.75;5043081;28;20024;-67
2021/11/09 02:17:52;;;;;;;0.10;0.10;;;;;;;3.33;87.29;102585.88;5041602;28;20048;-67
2021/11/09 02:20:21;;;;;;;0.10;0.10;;;;;;;3.33;86.99;102590.13;5060106;28;20107;-67
2021/11/09 02:22:48;;;;;;;0.10;0.10;;;;;;;3.33;86.93;102585.88;5042519;28;20055;-68
2021/11/09 02:25:16;;;;;;;0.13;0.13;;;;;;;3.34;86.92;102594.53;5059989;28;20040;-67
2021/11/09 02:27:42;;;;;;;0.07;0.07;;;;;;;3.34;86.99;102592.88;5060090;28;20047;-68
2021/11/09 02:30:10;;;;;;;0.10;0.10;;;;;;;3.36;87.24;102608.56;5041646;28;20356;-68
2021/11/09 02:32:36;;;;;;;0.10;0.10;;;;;;;3.38;87.15;102609.59;5059333;28;20414;-67
2021/11/09 02:35:02;;;;;;;0.30;0.30;;;;;;;3.37;87.14;102608.66;5059500;28;20024;-67
2021/11/09 02:37:28;;;;;;;0.10;0.10;;;;;;;3.38;86.94;102596.63;5059971;28;20036;-68
2021/11/09 02:39:53;;;;;;;0.03;0.03;;;;;;;3.37;87.05;102600.91;5057064;28;20049;-67
2021/11/09 02:42:19;;;;;;;0.10;0.10;;;;;;;3.36;87.26;102599.09;5059238;28;20024;-66
2021/11/09 02:45:13;;;;;;;0.10;0.10;;;;;;;3.37;87.00;102600.00;5059614;28;20052;-67
2021/11/09 02:47:55;;;;;;;0.00;0.00;;;;;;;3.38;87.28;102592.38;5042046;28;20410;-68
2021/11/09 02:50:23;;;;;;;0.00;0.00;;;;;;;3.41;87.53;102586.53;5042759;28;20029;-68
2021/11/09 02:55:27;;;;;;;0.10;0.10;;;;;;;3.48;87.25;102594.03;5059813;28;20040;-67
2021/11/09 03:01:01;;;;;;;0.00;0.00;;;;;;;3.48;87.19;102601.81;5045127;28;20090;-66
2021/11/09 03:03:32;;;;;;;0.17;0.17;;;;;;;3.49;87.44;102598.44;5057816;28;20068;-67
2021/11/09 03:08:43;;;;;;;0.10;0.10;;;;;;;3.48;86.80;102595.75;5043986;28;20108;-68
2021/11/09 03:11:09;;;;;;;0.07;0.07;;;;;;;3.47;87.09;102600.00;5059016;28;20039;-67
2021/11/09 03:13:36;;;;;;;0.10;0.10;;;;;;;3.45;87.23;102596.38;5059087;28;20099;-67
2021/11/09 03:16:08;;;;;;;0.03;0.03;;;;;;;3.43;87.14;102597.94;5041944;28;20032;-68
2021/11/09 03:18:42;;;;;;;0.10;0.10;;;;;;;3.39;86.87;102591.59;5041880;28;20147;-66
2021/11/09 03:45:30;;;;;;;0.00;0.00;;;;;;;3.23;87.11;102632.47;5058808;28;20048;-67
2021/11/09 03:48:03;;;;;;;0.10;0.10;;;;;;;3.21;87.06;102627.16;5040829;28;20135;-66
2021/11/09 03:50:29;;;;;;;0.00;0.00;;;;;;;3.21;87.08;102623.66;5041130;28;20029;-67
2021/11/09 03:53:01;;;;;;;0.20;0.20;;;;;;;3.16;86.60;102616.41;5040549;28;20117;-67
2021/11/09 03:55:54;;;;;;;0.10;0.10;;;;;;;3.13;86.89;102605.75;5058029;28;20043;-67
2021/11/09 04:00:58;;;;;;;0.00;0.00;;;;;;;3.11;87.09;102607.31;5057853;28;20033;-67
2021/11/09 04:06:03;;;;;;;0.07;0.07;;;;;;;3.16;87.33;102597.34;5057597;28;20072;-67
2021/11/09 04:11:19;;;;;;;0.00;0.00;;;;;;;3.24;87.29;102611.88;5055283;28;20273;-66
2021/11/09 04:51:01;;;;;;;0.10;0.10;;;;;;;4.00;87.56;102607.03;5057268;28;20047;-66
2021/11/09 05:09:32;;;;;;;0.23;0.23;;;;;;;4.49;87.46;102630.91;5056635;28;20036;-66
2021/11/09 05:11:57;;;;;;;0.10;0.10;;;;;;;4.57;87.27;102633.22;5056844;28;20021;-66
2021/11/09 05:14:23;;;;;;;0.00;0.00;;;;;;;4.68;87.34;102629.81;5056442;28;20032;-66
2021/11/09 05:16:48;;;;;;;0.00;0.00;;;;;;;4.70;87.32;102624.72;5039393;28;20033;-67
2021/11/09 05:19:13;;;;;;;0.00;0.00;;;;;;;4.75;87.34;102634.75;5056611;28;20269;-66
2021/11/09 05:21:40;;;;;;;0.00;0.00;;;;;;;4.80;87.25;102630.81;5056149;28;20422;-66
2021/11/09 05:24:06;;;;;;;0.00;0.00;;;;;;;4.87;86.99;102636.50;5056732;28;20094;-65
2021/11/09 05:26:33;;;;;;;0.00;0.00;;;;;;;4.96;86.84;102629.44;5057068;28;20028;-67
2021/11/09 05:28:58;;;;;;;0.00;0.00;;;;;;;5.02;87.01;102631.59;5022239;28;20037;-65
2021/11/09 05:31:24;;;;;;;0.20;0.20;;;;;;;5.09;86.94;102623.53;5057000;28;20020;-67
2021/11/09 05:33:54;;;;;;;0.00;0.00;;;;;;;5.20;86.69;102635.69;5056613;28;20474;-66
2021/11/09 05:36:19;;;;;;;0.00;0.00;;;;;;;5.22;86.51;102639.31;5056847;28;20035;-67
2021/11/09 05:38:52;;;;;;;0.03;0.03;;;;;;;5.26;86.24;102639.53;5038338;28;20300;-66
2021/11/09 05:41:20;;;;;;;0.10;0.10;;;;;;;5.27;86.49;102641.34;5025691;28;20032;-65
2021/11/09 05:43:45;;;;;;;0.00;0.00;;;;;;;5.33;86.44;102644.44;5056837;28;20025;-66
2021/11/09 05:46:11;;;;;;;0.10;0.10;;;;;;;5.32;86.21;102643.53;5038998;28;20025;-66
2021/11/09 05:48:37;;;;;;;0.10;0.10;;;;;;;5.38;86.09;102637.91;5038779;28;20338;-66
2021/11/09 05:51:04;;;;;;;0.67;0.67;;;;;;;5.38;86.09;102635.31;5038792;28;20032;-66
2021/11/09 05:53:30;;;;;;;0.23;0.23;;;;;;;5.41;86.08;102642.47;5022775;28;20067;-66
2021/11/09 05:55:56;;;;;;;0.10;0.10;;;;;;;5.42;86.10;102646.88;5055675;28;20405;-66
2021/11/09 05:58:21;;;;;;;0.00;0.00;;;;;;;5.44;86.16;102658.28;5056612;28;20104;-66
2021/11/09 06:00:47;;;;;;;0.10;0.10;;;;;;;5.48;85.90;102657.75;5056592;28;20040;-66
2021/11/09 06:03:12;;;;;;;0.10;0.10;;;;;;;5.54;85.87;102657.31;5038125;28;20029;-65
2021/11/09 06:05:37;;;;;;;0.00;0.00;;;;;;;5.54;85.29;102655.59;5056683;28;20033;-67
2021/11/09 06:08:03;;;;;;;0.07;0.07;;;;;;;5.59;85.69;102653.34;5056112;28;20075;-66
2021/11/09 06:10:29;;;;;;;0.27;0.27;;;;;;;5.58;85.63;102652.47;5055717;28;20310;-66
2021/11/09 06:12:54;;;;;;;0.03;0.03;;;;;;;5.60;85.53;102652.59;5038750;28;20044;-66
2021/11/09 06:15:19;;;;;;;0.00;0.00;;;;;;;5.62;85.54;102649.31;5056566;28;20040;-66
2021/11/09 06:17:45;;;;;;;0.00;0.00;;;;;;;5.64;85.49;102646.84;5055643;28;20029;-66
2021/11/09 06:20:11;;;;;;;0.00;0.00;;;;;;;5.73;85.21;102654.44;5037853;28;20055;-67
2021/11/09 06:22:37;;;;;;;0.30;0.30;;;;;;;5.74;84.94;102656.25;5055819;28;20319;-66
2021/11/09 06:25:03;;;;;;;0.10;0.10;;;;;;;5.72;84.87;102655.25;5056382;28;20032;-67
2021/11/09 06:27:29;;;;;;;0.03;0.03;;;;;;;5.74;85.04;102656.25;5059388;28;20033;-67
2021/11/09 06:29:54;;;;;;;0.00;0.00;;;;;;;5.78;84.63;102667.00;5042180;28;20029;-67
2021/11/09 06:32:19;;;;;;;0.20;0.20;;;;;;;5.81;84.73;102661.16;5058993;28;20369;-68
2021/11/09 06:34:45;;;;;;;0.10;0.10;;;;;;;5.83;84.72;102662.16;5042832;28;20024;-67
2021/11/09 06:37:11;;;;;;;0.10;0.10;;;;;;;5.82;84.82;102659.44;5059401;28;20025;-67
2021/11/09 06:39:37;;;;;;;0.20;0.20;;;;;;;5.86;84.92;102671.91;5042408;28;20043;-67
2021/11/09 06:42:03;;;;;;;0.20;0.20;;;;;;;5.84;84.82;102681.28;5059022;28;20299;-67
2021/11/09 06:44:28;;;;;;;0.10;0.10;;;;;;;5.85;84.69;102677.91;5042511;28;20117;-67
2021/11/09 06:46:54;;;;;;;0.10;0.10;;;;;;;5.85;84.27;102677.91;5058723;28;20496;-67
2021/11/09 06:49:19;;;;;;;0.20;0.20;;;;;;;5.84;84.95;102682.16;5058362;28;20033;-66
2021/11/09 06:51:45;;;;;;;0.20;0.20;;;;;;;5.85;85.24;102676.19;5041538;28;20113;-67
2021/11/09 06:54:10;;;;;;;0.20;0.20;;;;;;;5.90;85.08;102686.94;5057665;28;20118;-67
2021/11/09 06:56:36;;;;;;;0.30;0.30;;;;;;;5.90;84.91;102685.25;5058619;28;20338;-67
2021/11/09 06:59:04;;;;;;;0.10;0.10;;;;;;;5.94;85.08;102686.41;5023393;28;20113;-67
2021/11/09 07:01:31;;;;;;;0.10;0.10;;;;;;;5.96;84.86;102690.00;5041004;28;20480;-68
2021/11/09 07:03:56;;;;;;;0.20;0.20;;;;;;;5.97;84.98;102685.72;5056918;28;20025;-68
2021/11/09 07:06:22;;;;;;;0.10;0.10;;;;;;;5.97;85.31;102696.13;5058786;28;20413;-67
2021/11/09 07:08:47;;;;;;;0.10;0.10;;;;;;;5.98;85.22;102701.44;5059223;28;20363;-67
2021/11/09 07:11:12;;;;;;;0.00;0.00;;;;;;;5.99;85.24;102691.94;5058948;28;20087;-68
2021/11/09 07:13:40;;;;;;;0.37;0.37;;;;;;;6.10;85.02;102701.50;5059176;28;20094;-68
2021/11/09 07:16:06;;;;;;;0.10;0.10;;;;;;;6.14;84.62;102700.97;5058659;28;20056;-68
2021/11/09 07:18:31;;;;;;;0.20;0.20;;;;;;;6.18;84.63;102704.69;5058595;28;20120;-68
2021/11/09 07:20:57;;;;;;;0.00;0.00;;;;;;;6.21;84.50;102698.84;5058534;28;20029;-68
2021/11/09 07:23:22;;;;;;;0.20;0.20;;;;;;;6.27;84.34;102714.88;5058653;28;20418;-69
2021/11/09 07:25:48;;;;;;;0.10;0.10;;;;;;;6.28;84.26;102708.88;5059204;28;20021;-68
2021/11/09 07:28:13;;;;;;;0.10;0.10;;;;;;;6.28;84.34;102720.22;5058512;28;20048;-69
2021/11/09 07:30:43;;;;;;;0.10;0.10;;;;;;;6.26;84.62;102718.28;5058888;28;20075;-68
2021/11/09 07:33:12;;;;;;;0.10;0.10;;;;;;;6.30;84.51;102713.41;5041612;28;20025;-69
2021/11/09 07:35:38;;;;;;;0.10;0.10;;;;;;;6.29;84.83;102726.34;5059054;28;20044;-71
2021/11/09 07:38:04;;;;;;;0.10;0.10;;;;;;;6.39;84.35;102728.84;5040089;28;20036;-68
2021/11/09 07:40:30;;;;;;;0.10;0.10;;;;;;;6.42;84.16;102729.06;5058217;28;20087;-68
2021/11/09 07:42:55;;;;;;;0.20;0.20;;;;;;;6.41;84.31;102731.56;5058625;28;20024;-68
2021/11/09 07:45:21;;;;;;;0.10;0.10;;;;;;;6.44;84.45;102730.09;5058412;28;20047;-69
2021/11/09 07:47:49;;;;;;;0.20;0.20;;;;;;;6.43;84.15;102733.47;5058248;28;20021;-69
2021/11/09 07:50:15;;;;;;;0.03;0.03;;;;;;;6.46;84.11;102728.53;5058461;28;20033;-69
2021/11/09 07:52:42;;;;;;;0.10;0.10;;;;;;;6.48;83.96;102741.66;5058689;28;20029;-68
2021/11/09 07:55:12;;;;;;;0.10;0.10;;;;;;;6.55;84.24;102737.81;5058494;28;20021;-70
2021/11/09 07:57:46;;;;;;;0.10;0.10;;;;;;;6.52;83.74;102734.97;5057689;28;20039;-69
2021/11/09 08:00:26;;;;;;;0.23;0.23;;;;;;;6.52;84.36;102737.56;5058158;28;20021;-70
2021/11/09 08:05:59;;;;;;;0.10;0.10;;;;;;;6.53;84.76;102742.88;5058224;28;20036;-69
2021/11/09 08:08:32;;;;;;;0.30;0.30;;;;;;;6.62;84.74;102746.97;5058095;28;20037;-69
2021/11/09 08:10:58;;;;;;;0.20;0.20;;;;;;;6.64;84.50;102745.38;5043285;28;20017;-68
2021/11/09 08:13:24;;;;;;;0.03;0.03;;;;;;;6.69;84.30;102750.16;5057615;28;20086;-68
2021/11/09 08:15:49;;;;;;;0.30;0.30;;;;;;;6.70;84.14;102745.84;5058044;28;20067;-69
2021/11/09 08:18:16;;;;;;;0.20;0.20;;;;;;;6.72;83.59;102746.88;5057281;28;20036;-69
2021/11/09 08:20:41;;;;;;;0.10;0.10;;;;;;;6.73;84.28;102740.91;5057823;28;20074;-69
2021/11/09 08:23:08;;;;;;;0.20;0.20;;;;;;;6.75;84.10;102747.13;5040451;28;20112;-69
2021/11/09 08:25:33;;;;;;;0.17;0.17;;;;;;;6.80;83.97;102743.13;5057638;28;20039;-69
2021/11/09 08:28:01;;;;;;;0.10;0.10;;;;;;;6.83;84.17;102742.47;5040013;28;20025;-69
2021/11/09 08:30:26;;;;;;;0.10;0.10;;;;;;;6.82;84.11;102741.56;5057767;28;20095;-68
2021/11/09 08:32:53;;;;;;;0.10;0.10;;;;;;;6.91;84.04;102743.03;5057214;28;20052;-69
2021/11/09 08:35:22;;;;;;;0.10;0.10;;;;;;;6.89;84.22;102745.53;5057262;28;20036;-69
2021/11/09 08:37:51;;;;;;;0.10;0.10;;;;;;;6.89;84.38;102745.53;5057617;28;20048;-69
2021/11/09 08:40:20;;;;;;;0.10;0.10;;;;;;;6.96;84.33;102747.78;5057204;28;20288;-69
2021/11/09 08:42:54;;;;;;;0.10;0.10;;;;;;;6.99;84.31;102752.34;5040045;28;20099;-70
2021/11/09 08:45:39;;;;;;;0.10;0.10;;;;;;;7.07;83.84;102745.97;5057545;28;20033;-68
2021/11/09 08:48:09;;;;;;;0.10;0.10;;;;;;;7.08;83.90;102734.75;5056381;28;20024;-69
2021/11/09 08:50:35;;;;;;;0.10;0.10;;;;;;;7.10;83.87;102745.31;5057419;28;20060;-70
2021/11/09 08:53:06;;;;;;;0.20;0.20;;;;;;;7.07;84.09;102739.84;5057283;28;20057;-69
2021/11/09 08:55:52;;;;;;;0.20;0.20;;;;;;;7.10;84.13;102738.38;5057535;28;20021;-69
2021/11/09 09:06:14;;;;;;;0.30;0.30;;;;;;;7.34;82.99;102742.66;5056095;28;20044;-70
2021/11/09 09:08:39;;;;;;;0.13;0.13;;;;;;;7.35;83.03;102747.09;5056692;28;20040;-68
2021/11/09 09:11:04;;;;;;;0.10;0.10;;;;;;;7.35;83.24;102752.28;5039710;28;20029;-69
2021/11/09 09:13:30;;;;;;;0.30;0.30;;;;;;;7.41;82.88;102747.53;5039881;28;20024;-69
2021/11/09 09:15:55;;;;;;;0.10;0.10;;;;;;;7.46;82.98;102751.34;5056744;28;20039;-70
2021/11/09 09:18:22;;;;;;;0.40;0.40;;;;;;;7.52;82.78;102748.28;5056511;28;20067;-71
2021/11/09 09:20:53;;;;;;;0.30;0.30;;;;;;;7.56;82.84;102747.72;5057382;28;20035;-71
2021/11/09 09:23:25;;;;;;;0.20;0.20;;;;;;;7.56;82.76;102750.31;5055972;28;20045;-70
2021/11/09 09:53:00;;;;;;;0.30;0.30;;;;;;;8.24;80.80;102747.19;5041901;28;20133;-71
2021/11/09 09:55:40;;;;;;;0.20;0.20;;;;;;;8.19;81.13;102750.28;5019925;28;20045;-70
2021/11/09 09:58:11;;;;;;;0.30;0.30;;;;;;;8.20;80.61;102750.41;5031343;28;20041;-71
2021/11/09 10:00:46;;;;;;;0.30;0.30;;;;;;;8.27;80.72;102762.16;5058286;28;20036;-71
2021/11/09 10:03:12;;;;;;;0.30;0.30;;;;;;;8.36;79.70;102756.69;5059710;28;20044;-71
2021/11/09 10:05:41;;;;;;;0.30;0.30;;;;;;;8.36;79.96;102752.34;5026544;28;20021;-73
2021/11/09 10:08:18;;;;;;;0.30;0.30;;;;;;;8.40;80.17;102756.06;5059991;28;20025;-72
2021/11/09 10:10:44;;;;;;;0.20;0.20;;;;;;;8.41;79.99;102759.59;5062175;28;20393;-72
2021/11/09 10:13:17;;;;;;;0.30;0.30;;;;;;;8.39;80.28;102764.72;5059695;28;20029;-71
2021/11/09 10:15:52;;;;;;;0.40;0.40;;;;;;;8.40;80.34;102750.84;5060478;28;20078;-71
2021/11/09 10:18:19;;;;;;;0.30;0.30;;;;;;;8.46;79.91;102751.28;5057582;28;20033;-71
2021/11/09 10:20:47;;;;;;;0.30;0.30;;;;;;;8.47;79.98;102758.31;5060439;28;20083;-73
2021/11/09 10:23:21;;;;;;;0.33;0.33;;;;;;;8.46;80.57;102755.59;5059933;28;20017;-72
2021/11/09 10:25:52;;;;;;;0.20;0.20;;;;;;;8.48;80.62;102756.59;5041875;28;20083;-72
2021/11/09 10:28:22;;;;;;;0.30;0.30;;;;;;;8.55;80.17;102755.34;5059942;28;20021;-72
2021/11/09 10:30:55;;;;;;;0.50;0.50;;;;;;;8.54;80.60;102757.06;5043126;28;20287;-75
2021/11/09 10:33:24;;;;;;;0.43;0.43;;;;;;;8.62;80.42;102750.66;5059626;28;20025;-72
2021/11/09 10:35:50;;;;;;;0.30;0.30;;;;;;;8.66;80.26;102757.88;5060211;28;20024;-71
2021/11/09 10:38:16;;;;;;;0.47;0.47;;;;;;;8.69;80.57;102753.66;5058838;28;20036;-72
2021/11/09 10:40:48;;;;;;;0.30;0.30;;;;;;;8.71;80.79;102757.28;5059726;28;20033;-71
2021/11/09 10:43:14;;;;;;;0.40;0.40;;;;;;;8.68;81.05;102752.75;5058008;28;20028;-72
2021/11/09 10:45:40;;;;;;;0.40;0.40;;;;;;;8.69;81.01;102746.72;5059943;28;20035;-72
2021/11/09 10:48:13;;;;;;;0.40;0.40;;;;;;;8.74;81.38;102753.19;5041643;28;20031;-73
2021/11/09 10:50:40;;;;;;;0.20;0.20;;;;;;;8.79;80.98;102749.13;5059269;28;20037;-72
2021/11/09 10:53:18;;;;;;;0.40;0.40;;;;;;;8.85;80.85;102750.34;5042032;28;20021;-71
2021/11/09 11:06:26;;;;;;;0.30;0.30;;;;;;;8.79;81.00;102756.09;5059167;28;20334;-72
2021/11/09 11:09:07;;;;;;;0.30;0.30;;;;;;;8.72;81.67;102761.72;5059299;28;20022;-72
2021/11/09 11:11:44;;;;;;;0.40;0.40;;;;;;;8.70;81.64;102758.97;5058551;28;20257;-71
2021/11/09 11:14:12;;;;;;;0.30;0.30;;;;;;;8.62;82.07;102757.56;5059560;28;20100;-72
2021/11/09 11:16:49;;;;;;;0.30;0.30;;;;;;;8.62;81.88;102755.88;5059092;28;20021;-73
2021/11/09 11:19:25;;;;;;;0.13;0.13;;;;;;;8.59;82.36;102758.25;5041799;28;20052;-72
2021/11/09 11:21:50;;;;;;;1.13;1.13;;;;;;;8.59;82.32;102754.75;5041863;28;20025;-72
2021/11/09 11:24:17;;;;;;;0.20;0.20;;;;;;;8.57;82.38;102757.25;5058359;28;20044;-73
2021/11/09 11:26:44;;;;;;;0.10;0.10;;;;;;;8.61;82.08;102754.03;5041105;28;20120;-73
2021/11/09 11:29:14;;;;;;;0.30;0.30;;;;;;;8.51;82.79;102755.16;5057818;28;20035;-73
2021/11/09 11:31:39;;;;;;;0.20;0.20;;;;;;;8.54;82.48;102756.16;5041226;28;20025;-71
2021/11/09 11:34:04;;;;;;;0.33;0.33;;;;;;;8.53;82.74;102747.38;5041279;28;20035;-71
2021/11/09 11:36:30;;;;;;;0.17;0.17;;;;;;;8.56;82.52;102749.31;5041778;28;20069;-72
2021/11/09 11:39:00;;;;;;;0.23;0.23;;;;;;;8.56;82.51;102739.78;5058634;28;20033;-74
2021/11/09 11:41:29;;;;;;;0.40;0.40;;;;;;;8.58;82.65;102746.00;5058304;28;20069;-72
2021/11/09 11:43:56;;;;;;;0.30;0.30;;;;;;;8.55;82.90;102744.91;5058623;28;20039;-72
2021/11/09 11:46:34;;;;;;;0.30;0.30;;;;;;;8.57;82.96;102745.91;5041236;28;20410;-72
2021/11/09 11:49:10;;;;;;;0.30;0.30;;;;;;;8.53;83.14;102744.78;5057889;28;20033;-72
2021/11/09 11:51:58;;;;;;;0.20;0.20;;;;;;;8.50;83.72;102737.63;5058596;28;20049;-72
2021/11/09 11:54:37;;;;;;;0.20;0.20;;;;;;;8.50;83.81;102737.63;5055574;28;20021;-72
2021/11/09 11:57:03;;;;;;;0.10;0.10;;;;;;;8.50;83.76;102735.03;5057922;28;20048;-71
2021/11/09 11:59:37;;;;;;;0.20;0.20;;;;;;;8.51;83.77;102735.94;5058381;28;20358;-74
2021/11/09 12:02:04;;;;;;;0.20;0.20;;;;;;;8.53;83.46;102731.72;5057748;28;20021;-73
2021/11/09 12:04:42;;;;;;;0.20;0.20;;;;;;;8.54;83.97;102725.72;5040949;28;20051;-73
2021/11/09 12:07:13;;;;;;;0.20;0.20;;;;;;;8.55;84.01;102724.94;5057987;28;20033;-75
2021/11/09 12:09:44;;;;;;;0.10;0.10;;;;;;;8.56;84.04;102725.81;5058259;28;20048;-74
2021/11/09 12:12:18;;;;;;;0.23;0.23;;;;;;;8.54;84.06;102720.50;5057138;28;20111;-73
2021/11/09 12:14:58;;;;;;;0.20;0.20;;;;;;;8.56;84.18;102713.66;5058110;28;20017;-72
2021/11/09 12:17:40;;;;;;;0.30;0.30;;;;;;;8.57;84.61;102714.56;5057190;28;20025;-74
2021/11/09 12:20:14;;;;;;;0.30;0.30;;;;;;;8.55;84.32;102718.78;5057550;28;20306;-72
2021/11/09 12:22:49;;;;;;;0.30;0.30;;;;;;;8.57;84.28;102711.94;5057925;28;20021;-72
2021/11/09 12:25:36;;;;;;;0.35;0.35;;;;;;;8.59;84.41;102706.03;5057744;28;20017;-73
2021/11/09 12:28:12;;;;;;;0.13;0.13;;;;;;;8.59;84.39;102703.41;5039336;28;20048;-74
2021/11/09 12:30:46;;;;;;;0.10;0.10;;;;;;;8.56;84.49;102705.84;5056875;28;20060;-73
2021/11/09 12:33:20;;;;;;;0.20;0.20;;;;;;;8.52;84.97;102702.13;5039920;28;20284;-72
2021/11/09 12:35:58;;;;;;;0.20;0.20;;;;;;;8.53;85.45;102708.22;5057735;28;20087;-72
2021/11/09 12:38:37;;;;;;;0.20;0.20;;;;;;;8.52;85.52;102701.19;5057448;28;20120;-71
2021/11/09 12:41:11;;;;;;;0.10;0.10;;;;;;;8.55;85.59;102709.25;5029571;28;20025;-71
2021/11/09 12:43:42;;;;;;;0.20;0.20;;;;;;;8.61;85.45;102698.31;5057455;28;20032;-72
2021/11/09 12:46:28;;;;;;;0.20;0.20;;;;;;;8.60;85.51;102693.88;5057439;28;20384;-71
2021/11/09 12:48:57;;;;;;;0.22;0.22;;;;;;;8.63;85.33;102688.84;5056043;28;20083;-72
2021/11/09 12:51:25;;;;;;;0.20;0.20;;;;;;;8.67;84.63;102688.28;5056974;28;20021;-71
2021/11/09 12:53:52;;;;;;;0.00;0.00;;;;;;;8.66;85.06;102689.09;5038945;28;20017;-72
2021/11/09 12:56:37;;;;;;;0.23;0.23;;;;;;;8.62;85.22;102685.34;5056164;28;20062;-71
2021/11/09 12:59:10;;;;;;;0.23;0.23;;;;;;;8.66;85.11;102689.09;5054813;28;20358;-71
2021/11/09 13:04:32;;;;;;;0.20;0.20;;;;;;;8.64;85.15;102694.19;5022173;28;20057;-71
2021/11/09 13:09:55;;;;;;;0.10;0.10;;;;;;;8.63;85.07;102689.78;5053818;28;20106;-70
2021/11/09 13:12:24;;;;;;;0.20;0.20;;;;;;;8.62;85.31;102682.75;5052814;28;20280;-72
2021/11/09 13:14:54;;;;;;;0.20;0.20;;;;;;;8.60;85.32;102689.56;5020761;28;20056;-71
2021/11/09 13:17:23;;;;;;;0.20;0.20;;;;;;;8.59;85.58;102692.97;5055915;28;20060;-71
2021/11/09 13:23:16;;;;;;;0.10;0.10;;;;;;;8.68;85.89;102686.53;5043344;28;20047;-70
2021/11/09 13:25:58;;;;;;;0.20;0.20;;;;;;;8.71;85.30;102686.75;5056622;28;20434;-73
2021/11/09 13:28:36;;;;;;;0.20;0.20;;;;;;;8.72;85.34;102688.56;5057318;28;20021;-71
2021/11/09 13:31:11;;;;;;;0.13;0.13;;;;;;;8.71;85.26;102686.75;5056737;28;20039;-72
2021/11/09 13:33:42;;;;;;;0.20;0.20;;;;;;;8.69;85.19;102694.50;5056658;28;20139;-72
2021/11/09 13:36:09;;;;;;;0.10;0.10;;;;;;;8.69;85.18;102693.56;5059148;28;20020;-74
2021/11/09 13:38:39;;;;;;;0.20;0.20;;;;;;;8.71;85.11;102682.44;5060435;28;20091;-72
2021/11/09 13:41:17;;;;;;;0.10;0.10;;;;;;;8.72;84.97;102683.34;5043664;28;20300;-73
2021/11/09 13:43:51;;;;;;;0.20;0.20;;;;;;;8.82;84.71;102683.13;5043658;28;20029;-72
2021/11/09 13:46:25;;;;;;;0.20;0.20;;;;;;;8.81;84.48;102676.09;5044141;28;20291;-72
2021/11/09 13:48:54;;;;;;;0.10;0.10;;;;;;;8.88;84.09;102678.31;5026868;28;20403;-70
2021/11/09 13:51:25;;;;;;;0.33;0.33;;;;;;;8.86;83.71;102682.53;5007199;28;20442;-72
2021/11/09 13:54:08;;;;;;;0.30;0.30;;;;;;;8.93;83.58;102681.22;5041052;28;20327;-73
2021/11/09 13:56:34;;;;;;;0.30;0.30;;;;;;;8.94;83.48;102677.81;5008187;28;20037;-73
2021/11/09 13:59:06;;;;;;;0.10;0.10;;;;;;;8.95;83.76;102679.59;5023336;28;20033;-73
2021/11/09 14:01:40;;;;;;;0.40;0.40;;;;;;;8.96;83.43;102677.91;5046220;28;20024;-73
2021/11/09 14:09:47;;;;;;;0.30;0.30;;;;;;;8.99;83.35;102670.25;5043591;28;20033;-72
2021/11/09 14:17:37;;;;;;;0.30;0.30;;;;;;;9.07;82.91;102662.13;5060141;28;20039;-73
2021/11/09 14:20:18;;;;;;;0.57;0.57;;;;;;;9.11;82.94;102659.69;5060347;28;20291;-72
2021/11/09 14:22:46;;;;;;;0.20;0.20;;;;;;;9.07;83.05;102653.34;5060525;28;20051;-72
2021/11/09 14:25:12;;;;;;;0.40;0.40;;;;;;;9.06;83.17;102649.84;5059780;28;20036;-72